sensor_id;sensor_type;location;lat;lon;timestamp;P1;durP1;ratioP1;P2;durP2;ratioP2
73321;SDS011;61549;37.044;22.128;2022-12-29T00:02:14;9.55;;;7.05;;
73321;SDS011;61549;37.044;22.128;2022-12-29T00:04:42;9.80;;;7.30;;
73321;SDS011;61549;37.044;22.128;2022-12-29T00:07:08;11.13;;;7.75;;
73321;SDS011;61549;37.044;22.128;2022-12-29T00:09:34;11.50;;;8.13;;
73321;SDS011;61549;37.044;22.128;2022-12-29T00:12:00;11.20;;;7.40;;
73321;SDS011;61549;37.044;22.128;2022-12-29T00:14:27;11.93;;;8.00;;
73321;SDS011;61549;37.044;22.128;2022-12-29T00:17:11;11.10;;;7.70;;
73321;SDS011;61549;37.044;22.128;2022-12-29T00:19:37;12.38;;;8.52;;
73321;SDS011;61549;37.044;22.128;2022-12-29T00:22:22;10.80;;;7.55;;
73321;SDS011;61549;37.044;22.128;2022-12-29T00:25:07;13.30;;;8.60;;
73321;SDS011;61549;37.044;22.128;2022-12-29T00:27:53;10.75;;;7.45;;
73321;SDS011;61549;37.044;22.128;2022-12-29T00:30:38;10.38;;;7.75;;
73321;SDS011;61549;37.044;22.128;2022-12-29T00:33:27;10.05;;;7.20;;
73321;SDS011;61549;37.044;22.128;2022-12-29T00:36:18;8.38;;;6.60;;
73321;SDS011;61549;37.044;22.128;2022-12-29T00:38:51;11.35;;;6.95;;
73321;SDS011;61549;37.044;22.128;2022-12-29T00:41:38;8.48;;;6.85;;
73321;SDS011;61549;37.044;22.128;2022-12-29T00:44:23;10.60;;;7.60;;
73321;SDS011;61549;37.044;22.128;2022-12-29T00:46:49;8.90;;;6.45;;
73321;SDS011;61549;37.044;22.128;2022-12-29T00:49:14;11.18;;;7.40;;
73321;SDS011;61549;37.044;22.128;2022-12-29T00:51:56;9.40;;;6.72;;
73321;SDS011;61549;37.044;22.128;2022-12-29T00:54:31;10.30;;;6.97;;
73321;SDS011;61549;37.044;22.128;2022-12-29T00:56:58;10.05;;;6.97;;
73321;SDS011;61549;37.044;22.128;2022-12-29T00:59:24;8.25;;;6.57;;
73321;SDS011;61549;37.044;22.128;2022-12-29T01:01:51;8.68;;;7.10;;
73321;SDS011;61549;37.044;22.128;2022-12-29T01:04:18;9.38;;;6.53;;
73321;SDS011;61549;37.044;22.128;2022-12-29T01:06:45;8.80;;;6.78;;
73321;SDS011;61549;37.044;22.128;2022-12-29T01:09:11;11.90;;;7.28;;
73321;SDS011;61549;37.044;22.128;2022-12-29T01:11:55;8.13;;;6.82;;
73321;SDS011;61549;37.044;22.128;2022-12-29T01:14:21;9.77;;;7.15;;
73321;SDS011;61549;37.044;22.128;2022-12-29T01:16:48;9.18;;;6.45;;
73321;SDS011;61549;37.044;22.128;2022-12-29T01:19:15;8.07;;;6.55;;
73321;SDS011;61549;37.044;22.128;2022-12-29T01:21:42;8.15;;;6.40;;
73321;SDS011;61549;37.044;22.128;2022-12-29T01:24:08;9.80;;;6.78;;
73321;SDS011;61549;37.044;22.128;2022-12-29T01:26:33;9.90;;;7.00;;
73321;SDS011;61549;37.044;22.128;2022-12-29T01:28:59;9.57;;;6.90;;
73321;SDS011;61549;37.044;22.128;2022-12-29T01:31:25;8.23;;;6.32;;
73321;SDS011;61549;37.044;22.128;2022-12-29T01:33:51;9.30;;;6.40;;
73321;SDS011;61549;37.044;22.128;2022-12-29T01:36:17;9.10;;;6.55;;
73321;SDS011;61549;37.044;22.128;2022-12-29T01:38:43;8.00;;;6.60;;
73321;SDS011;61549;37.044;22.128;2022-12-29T01:41:11;8.95;;;6.75;;
73321;SDS011;61549;37.044;22.128;2022-12-29T01:43:43;8.73;;;6.32;;
73321;SDS011;61549;37.044;22.128;2022-12-29T01:49:04;9.10;;;6.68;;
73321;SDS011;61549;37.044;22.128;2022-12-29T01:51:55;8.20;;;6.53;;
73321;SDS011;61549;37.044;22.128;2022-12-29T01:54:23;8.77;;;6.60;;
73321;SDS011;61549;37.044;22.128;2022-12-29T01:56:56;8.68;;;6.65;;
73321;SDS011;61549;37.044;22.128;2022-12-29T01:59:27;7.88;;;6.25;;
73321;SDS011;61549;37.044;22.128;2022-12-29T02:01:58;9.23;;;6.50;;
73321;SDS011;61549;37.044;22.128;2022-12-29T02:04:25;8.93;;;6.97;;
73321;SDS011;61549;37.044;22.128;2022-12-29T02:09:22;8.50;;;6.32;;
73321;SDS011;61549;37.044;22.128;2022-12-29T02:11:48;8.13;;;6.68;;
73321;SDS011;61549;37.044;22.128;2022-12-29T02:14:14;6.95;;;5.95;;
73321;SDS011;61549;37.044;22.128;2022-12-29T02:16:59;8.48;;;6.32;;
73321;SDS011;61549;37.044;22.128;2022-12-29T02:22:28;8.90;;;6.40;;
73321;SDS011;61549;37.044;22.128;2022-12-29T02:25:12;7.60;;;6.00;;
73321;SDS011;61549;37.044;22.128;2022-12-29T02:36:28;8.07;;;5.75;;
73321;SDS011;61549;37.044;22.128;2022-12-29T02:39:09;10.55;;;6.25;;
73321;SDS011;61549;37.044;22.128;2022-12-29T02:44:50;8.75;;;6.13;;
73321;SDS011;61549;37.044;22.128;2022-12-29T02:47:30;6.57;;;5.75;;
73321;SDS011;61549;37.044;22.128;2022-12-29T02:50:13;7.85;;;6.10;;
73321;SDS011;61549;37.044;22.128;2022-12-29T02:53:05;9.65;;;6.45;;
73321;SDS011;61549;37.044;22.128;2022-12-29T02:55:34;9.70;;;6.65;;
73321;SDS011;61549;37.044;22.128;2022-12-29T02:58:33;8.45;;;6.55;;
73321;SDS011;61549;37.044;22.128;2022-12-29T03:03:49;7.70;;;6.00;;
73321;SDS011;61549;37.044;22.128;2022-12-29T03:06:22;7.95;;;6.22;;
73321;SDS011;61549;37.044;22.128;2022-12-29T03:11:58;7.60;;;6.40;;
73321;SDS011;61549;37.044;22.128;2022-12-29T03:15:15;8.68;;;6.18;;
73321;SDS011;61549;37.044;22.128;2022-12-29T03:18:20;8.02;;;5.95;;
73321;SDS011;61549;37.044;22.128;2022-12-29T03:21:07;8.50;;;6.30;;
73321;SDS011;61549;37.044;22.128;2022-12-29T03:23:44;8.27;;;6.25;;
73321;SDS011;61549;37.044;22.128;2022-12-29T03:26:14;7.20;;;5.55;;
73321;SDS011;61549;37.044;22.128;2022-12-29T03:28:45;8.27;;;6.00;;
73321;SDS011;61549;37.044;22.128;2022-12-29T03:31:31;7.90;;;6.10;;
73321;SDS011;61549;37.044;22.128;2022-12-29T03:33:56;8.02;;;6.45;;
73321;SDS011;61549;37.044;22.128;2022-12-29T03:36:32;7.88;;;6.05;;
73321;SDS011;61549;37.044;22.128;2022-12-29T03:39:08;8.50;;;6.40;;
73321;SDS011;61549;37.044;22.128;2022-12-29T03:41:39;9.38;;;6.60;;
73321;SDS011;61549;37.044;22.128;2022-12-29T03:44:08;7.95;;;6.15;;
73321;SDS011;61549;37.044;22.128;2022-12-29T03:46:34;8.63;;;6.53;;
73321;SDS011;61549;37.044;22.128;2022-12-29T03:49:00;10.57;;;5.90;;
73321;SDS011;61549;37.044;22.128;2022-12-29T03:51:26;6.47;;;5.78;;
73321;SDS011;61549;37.044;22.128;2022-12-29T03:53:52;9.65;;;6.10;;
73321;SDS011;61549;37.044;22.128;2022-12-29T03:56:18;7.97;;;6.03;;
73321;SDS011;61549;37.044;22.128;2022-12-29T03:58:44;8.68;;;6.57;;
73321;SDS011;61549;37.044;22.128;2022-12-29T04:01:10;8.65;;;6.40;;
73321;SDS011;61549;37.044;22.128;2022-12-29T04:03:36;8.73;;;6.75;;
73321;SDS011;61549;37.044;22.128;2022-12-29T04:06:02;8.48;;;6.18;;
73321;SDS011;61549;37.044;22.128;2022-12-29T04:08:28;8.68;;;6.00;;
73321;SDS011;61549;37.044;22.128;2022-12-29T04:10:53;8.23;;;6.00;;
73321;SDS011;61549;37.044;22.128;2022-12-29T04:13:19;6.95;;;5.88;;
73321;SDS011;61549;37.044;22.128;2022-12-29T04:15:45;7.93;;;5.85;;
73321;SDS011;61549;37.044;22.128;2022-12-29T04:18:11;6.70;;;5.68;;
73321;SDS011;61549;37.044;22.128;2022-12-29T04:20:38;7.25;;;5.70;;
73321;SDS011;61549;37.044;22.128;2022-12-29T04:23:22;8.85;;;5.47;;
73321;SDS011;61549;37.044;22.128;2022-12-29T04:25:48;7.30;;;5.68;;
73321;SDS011;61549;37.044;22.128;2022-12-29T04:28:14;8.00;;;5.63;;
73321;SDS011;61549;37.044;22.128;2022-12-29T04:30:41;7.97;;;5.78;;
73321;SDS011;61549;37.044;22.128;2022-12-29T04:33:08;7.57;;;5.97;;
73321;SDS011;61549;37.044;22.128;2022-12-29T04:35:34;7.22;;;5.85;;
73321;SDS011;61549;37.044;22.128;2022-12-29T04:38:00;7.53;;;5.60;;
73321;SDS011;61549;37.044;22.128;2022-12-29T04:40:26;8.40;;;6.00;;
73321;SDS011;61549;37.044;22.128;2022-12-29T04:42:52;7.43;;;5.88;;
73321;SDS011;61549;37.044;22.128;2022-12-29T04:45:18;7.55;;;6.18;;
73321;SDS011;61549;37.044;22.128;2022-12-29T04:47:44;7.07;;;5.88;;
73321;SDS011;61549;37.044;22.128;2022-12-29T04:50:10;7.90;;;6.10;;
73321;SDS011;61549;37.044;22.128;2022-12-29T04:52:36;8.13;;;6.32;;
73321;SDS011;61549;37.044;22.128;2022-12-29T04:55:02;8.32;;;6.15;;
73321;SDS011;61549;37.044;22.128;2022-12-29T04:57:28;8.27;;;6.53;;
73321;SDS011;61549;37.044;22.128;2022-12-29T04:59:54;9.20;;;7.10;;
73321;SDS011;61549;37.044;22.128;2022-12-29T05:02:20;8.82;;;6.45;;
73321;SDS011;61549;37.044;22.128;2022-12-29T05:04:46;8.13;;;6.00;;
73321;SDS011;61549;37.044;22.128;2022-12-29T05:07:12;7.45;;;5.97;;
73321;SDS011;61549;37.044;22.128;2022-12-29T05:09:38;8.85;;;6.13;;
73321;SDS011;61549;37.044;22.128;2022-12-29T05:12:04;7.35;;;5.70;;
73321;SDS011;61549;37.044;22.128;2022-12-29T05:14:30;8.00;;;5.90;;
73321;SDS011;61549;37.044;22.128;2022-12-29T05:16:57;7.60;;;5.78;;
73321;SDS011;61549;37.044;22.128;2022-12-29T05:19:23;8.23;;;6.28;;
73321;SDS011;61549;37.044;22.128;2022-12-29T05:21:49;8.43;;;5.75;;
73321;SDS011;61549;37.044;22.128;2022-12-29T05:24:15;8.35;;;6.20;;
73321;SDS011;61549;37.044;22.128;2022-12-29T05:26:41;8.13;;;5.90;;
73321;SDS011;61549;37.044;22.128;2022-12-29T05:29:07;7.38;;;6.00;;
73321;SDS011;61549;37.044;22.128;2022-12-29T05:31:33;8.25;;;6.03;;
73321;SDS011;61549;37.044;22.128;2022-12-29T05:34:00;7.53;;;5.90;;
73321;SDS011;61549;37.044;22.128;2022-12-29T05:36:27;7.65;;;6.07;;
73321;SDS011;61549;37.044;22.128;2022-12-29T05:38:53;8.77;;;6.18;;
73321;SDS011;61549;37.044;22.128;2022-12-29T05:41:19;8.00;;;6.35;;
73321;SDS011;61549;37.044;22.128;2022-12-29T05:43:44;7.65;;;6.35;;
73321;SDS011;61549;37.044;22.128;2022-12-29T05:46:10;9.05;;;6.25;;
73321;SDS011;61549;37.044;22.128;2022-12-29T05:48:36;8.07;;;6.78;;
73321;SDS011;61549;37.044;22.128;2022-12-29T05:51:02;9.13;;;6.82;;
73321;SDS011;61549;37.044;22.128;2022-12-29T05:53:28;9.20;;;7.05;;
73321;SDS011;61549;37.044;22.128;2022-12-29T05:55:54;8.00;;;6.60;;
73321;SDS011;61549;37.044;22.128;2022-12-29T05:58:20;8.73;;;6.93;;
73321;SDS011;61549;37.044;22.128;2022-12-29T06:00:46;9.10;;;6.60;;
73321;SDS011;61549;37.044;22.128;2022-12-29T06:03:11;8.68;;;6.10;;
73321;SDS011;61549;37.044;22.128;2022-12-29T06:05:37;9.50;;;6.25;;
73321;SDS011;61549;37.044;22.128;2022-12-29T06:08:03;8.85;;;6.75;;
73321;SDS011;61549;37.044;22.128;2022-12-29T06:10:29;8.75;;;6.55;;
73321;SDS011;61549;37.044;22.128;2022-12-29T06:12:55;7.25;;;5.57;;
73321;SDS011;61549;37.044;22.128;2022-12-29T06:15:21;7.78;;;5.97;;
73321;SDS011;61549;37.044;22.128;2022-12-29T06:17:47;8.75;;;5.97;;
73321;SDS011;61549;37.044;22.128;2022-12-29T06:20:13;7.43;;;5.88;;
73321;SDS011;61549;37.044;22.128;2022-12-29T06:22:39;6.22;;;5.40;;
73321;SDS011;61549;37.044;22.128;2022-12-29T06:25:05;8.13;;;5.82;;
73321;SDS011;61549;37.044;22.128;2022-12-29T06:27:31;7.70;;;5.45;;
73321;SDS011;61549;37.044;22.128;2022-12-29T06:29:57;8.15;;;5.95;;
73321;SDS011;61549;37.044;22.128;2022-12-29T06:32:23;8.07;;;5.80;;
73321;SDS011;61549;37.044;22.128;2022-12-29T06:34:49;9.43;;;5.93;;
73321;SDS011;61549;37.044;22.128;2022-12-29T06:37:14;7.30;;;5.93;;
73321;SDS011;61549;37.044;22.128;2022-12-29T06:39:40;7.53;;;6.03;;
73321;SDS011;61549;37.044;22.128;2022-12-29T06:42:08;8.18;;;5.95;;
73321;SDS011;61549;37.044;22.128;2022-12-29T06:44:34;7.88;;;6.72;;
73321;SDS011;61549;37.044;22.128;2022-12-29T06:47:00;8.73;;;6.78;;
73321;SDS011;61549;37.044;22.128;2022-12-29T06:49:26;8.73;;;6.75;;
73321;SDS011;61549;37.044;22.128;2022-12-29T06:51:52;8.98;;;6.78;;
73321;SDS011;61549;37.044;22.128;2022-12-29T06:54:18;10.13;;;7.15;;
73321;SDS011;61549;37.044;22.128;2022-12-29T06:56:44;9.68;;;7.25;;
73321;SDS011;61549;37.044;22.128;2022-12-29T06:59:10;8.52;;;6.75;;
73321;SDS011;61549;37.044;22.128;2022-12-29T07:01:36;9.13;;;6.55;;
73321;SDS011;61549;37.044;22.128;2022-12-29T07:04:02;9.68;;;5.53;;
73321;SDS011;61549;37.044;22.128;2022-12-29T07:06:28;7.38;;;6.00;;
73321;SDS011;61549;37.044;22.128;2022-12-29T07:08:54;6.68;;;5.50;;
73321;SDS011;61549;37.044;22.128;2022-12-29T07:11:22;7.85;;;5.93;;
73321;SDS011;61549;37.044;22.128;2022-12-29T07:13:49;8.82;;;6.47;;
73321;SDS011;61549;37.044;22.128;2022-12-29T07:16:15;8.50;;;6.95;;
73321;SDS011;61549;37.044;22.128;2022-12-29T07:18:41;9.15;;;6.72;;
73321;SDS011;61549;37.044;22.128;2022-12-29T07:21:07;12.68;;;9.07;;
73321;SDS011;61549;37.044;22.128;2022-12-29T07:23:33;15.02;;;11.15;;
73321;SDS011;61549;37.044;22.128;2022-12-29T07:26:03;12.98;;;9.73;;
73321;SDS011;61549;37.044;22.128;2022-12-29T07:28:31;11.20;;;8.07;;
73321;SDS011;61549;37.044;22.128;2022-12-29T07:30:57;9.80;;;8.15;;
73321;SDS011;61549;37.044;22.128;2022-12-29T07:33:24;10.75;;;8.02;;
73321;SDS011;61549;37.044;22.128;2022-12-29T07:35:50;9.75;;;8.27;;
73321;SDS011;61549;37.044;22.128;2022-12-29T07:38:16;9.32;;;7.65;;
73321;SDS011;61549;37.044;22.128;2022-12-29T07:40:42;8.98;;;7.57;;
73321;SDS011;61549;37.044;22.128;2022-12-29T07:43:08;8.95;;;7.47;;
73321;SDS011;61549;37.044;22.128;2022-12-29T07:45:34;8.77;;;6.97;;
73321;SDS011;61549;37.044;22.128;2022-12-29T07:48:00;10.20;;;7.28;;
73321;SDS011;61549;37.044;22.128;2022-12-29T07:50:27;9.60;;;8.13;;
73321;SDS011;61549;37.044;22.128;2022-12-29T07:52:53;9.68;;;8.05;;
73321;SDS011;61549;37.044;22.128;2022-12-29T07:55:19;10.68;;;8.00;;
73321;SDS011;61549;37.044;22.128;2022-12-29T07:57:45;9.82;;;7.70;;
73321;SDS011;61549;37.044;22.128;2022-12-29T08:00:11;9.15;;;7.25;;
73321;SDS011;61549;37.044;22.128;2022-12-29T08:02:37;11.40;;;7.90;;
73321;SDS011;61549;37.044;22.128;2022-12-29T08:05:03;8.48;;;6.93;;
73321;SDS011;61549;37.044;22.128;2022-12-29T08:07:29;9.15;;;7.68;;
73321;SDS011;61549;37.044;22.128;2022-12-29T08:09:55;8.75;;;7.50;;
73321;SDS011;61549;37.044;22.128;2022-12-29T08:12:21;10.95;;;8.25;;
73321;SDS011;61549;37.044;22.128;2022-12-29T08:14:47;10.95;;;8.70;;
73321;SDS011;61549;37.044;22.128;2022-12-29T08:17:13;9.00;;;8.10;;
73321;SDS011;61549;37.044;22.128;2022-12-29T08:19:39;13.07;;;7.95;;
73321;SDS011;61549;37.044;22.128;2022-12-29T08:22:05;9.85;;;7.85;;
73321;SDS011;61549;37.044;22.128;2022-12-29T08:24:31;10.55;;;8.60;;
73321;SDS011;61549;37.044;22.128;2022-12-29T08:26:56;11.23;;;8.43;;
73321;SDS011;61549;37.044;22.128;2022-12-29T08:29:22;10.00;;;8.15;;
73321;SDS011;61549;37.044;22.128;2022-12-29T08:31:48;11.23;;;9.07;;
73321;SDS011;61549;37.044;22.128;2022-12-29T08:34:14;11.32;;;8.43;;
73321;SDS011;61549;37.044;22.128;2022-12-29T08:36:40;11.48;;;9.15;;
73321;SDS011;61549;37.044;22.128;2022-12-29T08:39:06;9.50;;;8.32;;
73321;SDS011;61549;37.044;22.128;2022-12-29T08:41:32;10.70;;;8.82;;
73321;SDS011;61549;37.044;22.128;2022-12-29T08:43:57;10.15;;;8.15;;
73321;SDS011;61549;37.044;22.128;2022-12-29T08:46:23;9.65;;;8.13;;
73321;SDS011;61549;37.044;22.128;2022-12-29T08:48:49;9.07;;;7.90;;
73321;SDS011;61549;37.044;22.128;2022-12-29T08:51:15;9.52;;;7.78;;
73321;SDS011;61549;37.044;22.128;2022-12-29T08:53:42;10.60;;;8.52;;
73321;SDS011;61549;37.044;22.128;2022-12-29T08:56:08;9.25;;;7.20;;
73321;SDS011;61549;37.044;22.128;2022-12-29T08:58:34;9.80;;;8.30;;
73321;SDS011;61549;37.044;22.128;2022-12-29T09:01:01;9.20;;;7.93;;
73321;SDS011;61549;37.044;22.128;2022-12-29T09:03:27;8.68;;;7.78;;
73321;SDS011;61549;37.044;22.128;2022-12-29T09:05:53;10.85;;;8.60;;
73321;SDS011;61549;37.044;22.128;2022-12-29T09:08:20;9.98;;;7.70;;
73321;SDS011;61549;37.044;22.128;2022-12-29T09:10:47;10.30;;;8.00;;
73321;SDS011;61549;37.044;22.128;2022-12-29T09:13:13;9.48;;;7.70;;
73321;SDS011;61549;37.044;22.128;2022-12-29T09:15:40;8.52;;;7.40;;
73321;SDS011;61549;37.044;22.128;2022-12-29T09:18:06;9.25;;;8.25;;
73321;SDS011;61549;37.044;22.128;2022-12-29T09:20:33;10.77;;;8.43;;
73321;SDS011;61549;37.044;22.128;2022-12-29T09:22:59;16.08;;;10.40;;
73321;SDS011;61549;37.044;22.128;2022-12-29T09:25:26;15.43;;;11.80;;
73321;SDS011;61549;37.044;22.128;2022-12-29T09:27:52;12.82;;;10.85;;
73321;SDS011;61549;37.044;22.128;2022-12-29T09:30:19;15.20;;;11.95;;
73321;SDS011;61549;37.044;22.128;2022-12-29T09:32:46;18.52;;;15.43;;
73321;SDS011;61549;37.044;22.128;2022-12-29T09:35:13;23.55;;;19.30;;
73321;SDS011;61549;37.044;22.128;2022-12-29T09:37:39;16.92;;;14.63;;
73321;SDS011;61549;37.044;22.128;2022-12-29T09:40:07;17.00;;;13.50;;
73321;SDS011;61549;37.044;22.128;2022-12-29T09:42:42;22.15;;;15.38;;
73321;SDS011;61549;37.044;22.128;2022-12-29T09:45:24;17.88;;;13.75;;
73321;SDS011;61549;37.044;22.128;2022-12-29T09:47:58;18.77;;;14.73;;
73321;SDS011;61549;37.044;22.128;2022-12-29T09:50:35;22.63;;;17.52;;
73321;SDS011;61549;37.044;22.128;2022-12-29T09:53:11;20.65;;;17.35;;
73321;SDS011;61549;37.044;22.128;2022-12-29T09:55:49;20.80;;;17.10;;
73321;SDS011;61549;37.044;22.128;2022-12-29T10:03:24;23.45;;;17.80;;
73321;SDS011;61549;37.044;22.128;2022-12-29T10:06:06;22.63;;;18.23;;
73321;SDS011;61549;37.044;22.128;2022-12-29T10:08:41;21.75;;;17.00;;
73321;SDS011;61549;37.044;22.128;2022-12-29T10:11:31;21.80;;;17.40;;
73321;SDS011;61549;37.044;22.128;2022-12-29T10:22:56;23.10;;;18.23;;
73321;SDS011;61549;37.044;22.128;2022-12-29T10:25:39;19.83;;;16.50;;
73321;SDS011;61549;37.044;22.128;2022-12-29T10:28:15;20.73;;;18.15;;
73321;SDS011;61549;37.044;22.128;2022-12-29T10:30:48;13.80;;;12.02;;
73321;SDS011;61549;37.044;22.128;2022-12-29T10:33:16;10.20;;;9.18;;
73321;SDS011;61549;37.044;22.128;2022-12-29T10:35:48;10.57;;;7.93;;
73321;SDS011;61549;37.044;22.128;2022-12-29T10:39:37;18.57;;;15.83;;
73321;SDS011;61549;37.044;22.128;2022-12-29T10:41:32;18.17;;;15.27;;
73321;SDS011;61549;37.044;22.128;2022-12-29T10:44:22;16.48;;;14.65;;
73321;SDS011;61549;37.044;22.128;2022-12-29T10:47:04;13.88;;;11.30;;
73321;SDS011;61549;37.044;22.128;2022-12-29T10:49:40;15.70;;;12.27;;
73321;SDS011;61549;37.044;22.128;2022-12-29T10:52:08;13.45;;;11.48;;
73321;SDS011;61549;37.044;22.128;2022-12-29T10:54:45;16.58;;;13.95;;
73321;SDS011;61549;37.044;22.128;2022-12-29T10:59:59;12.57;;;11.27;;
73321;SDS011;61549;37.044;22.128;2022-12-29T11:07:52;10.10;;;8.20;;
73321;SDS011;61549;37.044;22.128;2022-12-29T11:10:36;6.82;;;6.10;;
73321;SDS011;61549;37.044;22.128;2022-12-29T11:13:13;8.93;;;7.97;;
73321;SDS011;61549;37.044;22.128;2022-12-29T11:15:59;9.40;;;7.30;;
73321;SDS011;61549;37.044;22.128;2022-12-29T11:18:37;8.35;;;7.43;;
73321;SDS011;61549;37.044;22.128;2022-12-29T11:23:59;12.20;;;8.82;;
73321;SDS011;61549;37.044;22.128;2022-12-29T11:26:27;15.07;;;9.63;;
73321;SDS011;61549;37.044;22.128;2022-12-29T11:29:05;8.00;;;6.80;;
73321;SDS011;61549;37.044;22.128;2022-12-29T11:31:52;7.35;;;6.20;;
73321;SDS011;61549;37.044;22.128;2022-12-29T11:37:02;10.98;;;7.00;;
73321;SDS011;61549;37.044;22.128;2022-12-29T11:39:50;5.95;;;4.63;;
73321;SDS011;61549;37.044;22.128;2022-12-29T11:42:47;6.32;;;4.65;;
73321;SDS011;61549;37.044;22.128;2022-12-29T11:45:19;5.30;;;4.60;;
73321;SDS011;61549;37.044;22.128;2022-12-29T11:47:48;5.10;;;4.45;;
73321;SDS011;61549;37.044;22.128;2022-12-29T11:50:20;5.47;;;4.68;;
73321;SDS011;61549;37.044;22.128;2022-12-29T11:53:04;5.22;;;4.65;;
73321;SDS011;61549;37.044;22.128;2022-12-29T11:55:52;6.57;;;5.25;;
73321;SDS011;61549;37.044;22.128;2022-12-29T11:58:45;7.07;;;5.75;;
73321;SDS011;61549;37.044;22.128;2022-12-29T12:01:20;5.28;;;4.78;;
73321;SDS011;61549;37.044;22.128;2022-12-29T12:03:58;5.82;;;5.22;;
73321;SDS011;61549;37.044;22.128;2022-12-29T12:06:58;7.20;;;5.60;;
73321;SDS011;61549;37.044;22.128;2022-12-29T12:09:35;8.48;;;6.95;;
73321;SDS011;61549;37.044;22.128;2022-12-29T12:12:09;8.63;;;6.78;;
73321;SDS011;61549;37.044;22.128;2022-12-29T12:14:53;5.32;;;4.80;;
73321;SDS011;61549;37.044;22.128;2022-12-29T12:17:29;7.03;;;5.32;;
73321;SDS011;61549;37.044;22.128;2022-12-29T12:22:55;11.30;;;8.02;;
73321;SDS011;61549;37.044;22.128;2022-12-29T12:25:25;6.30;;;5.10;;
73321;SDS011;61549;37.044;22.128;2022-12-29T12:30:28;5.75;;;4.70;;
73321;SDS011;61549;37.044;22.128;2022-12-29T12:33:03;6.38;;;4.50;;
73321;SDS011;61549;37.044;22.128;2022-12-29T12:48:44;6.40;;;5.63;;
73321;SDS011;61549;37.044;22.128;2022-12-29T12:59:46;7.45;;;6.30;;
73321;SDS011;61549;37.044;22.128;2022-12-29T13:15:41;6.78;;;4.63;;
73321;SDS011;61549;37.044;22.128;2022-12-29T13:26:34;6.20;;;4.30;;
73321;SDS011;61549;37.044;22.128;2022-12-29T13:29:50;5.55;;;4.70;;
73321;SDS011;61549;37.044;22.128;2022-12-29T13:37:28;7.05;;;5.78;;
73321;SDS011;61549;37.044;22.128;2022-12-29T13:40:00;6.53;;;5.43;;
73321;SDS011;61549;37.044;22.128;2022-12-29T13:42:30;6.88;;;6.05;;
73321;SDS011;61549;37.044;22.128;2022-12-29T13:45:05;7.15;;;6.30;;
73321;SDS011;61549;37.044;22.128;2022-12-29T13:47:40;7.28;;;5.90;;
73321;SDS011;61549;37.044;22.128;2022-12-29T13:50:14;7.10;;;6.18;;
73321;SDS011;61549;37.044;22.128;2022-12-29T13:52:55;8.07;;;6.88;;
73321;SDS011;61549;37.044;22.128;2022-12-29T13:55:32;6.32;;;5.70;;
73321;SDS011;61549;37.044;22.128;2022-12-29T13:58:13;9.25;;;6.78;;
73321;SDS011;61549;37.044;22.128;2022-12-29T14:03:43;7.20;;;6.50;;
73321;SDS011;61549;37.044;22.128;2022-12-29T14:06:31;8.63;;;7.25;;
73321;SDS011;61549;37.044;22.128;2022-12-29T14:09:05;8.05;;;6.90;;
73321;SDS011;61549;37.044;22.128;2022-12-29T14:11:52;8.80;;;6.95;;
73321;SDS011;61549;37.044;22.128;2022-12-29T14:14:20;8.55;;;6.50;;
73321;SDS011;61549;37.044;22.128;2022-12-29T14:16:48;7.68;;;6.13;;
73321;SDS011;61549;37.044;22.128;2022-12-29T14:19:23;9.05;;;7.40;;
73321;SDS011;61549;37.044;22.128;2022-12-29T14:21:57;8.73;;;7.35;;
73321;SDS011;61549;37.044;22.128;2022-12-29T14:27:24;8.10;;;6.65;;
73321;SDS011;61549;37.044;22.128;2022-12-29T14:29:50;7.75;;;6.95;;
73321;SDS011;61549;37.044;22.128;2022-12-29T14:34:58;8.70;;;7.18;;
73321;SDS011;61549;37.044;22.128;2022-12-29T14:42:43;7.35;;;6.45;;
73321;SDS011;61549;37.044;22.128;2022-12-29T14:47:46;13.90;;;9.25;;
73321;SDS011;61549;37.044;22.128;2022-12-29T14:50:49;7.50;;;6.30;;
73321;SDS011;61549;37.044;22.128;2022-12-29T14:56:11;9.63;;;8.20;;
73321;SDS011;61549;37.044;22.128;2022-12-29T15:01:18;10.15;;;8.77;;
73321;SDS011;61549;37.044;22.128;2022-12-29T15:03:46;12.70;;;9.48;;
73321;SDS011;61549;37.044;22.128;2022-12-29T15:06:18;8.85;;;7.35;;
73321;SDS011;61549;37.044;22.128;2022-12-29T15:08:51;8.90;;;7.50;;
73321;SDS011;61549;37.044;22.128;2022-12-29T15:14:03;12.38;;;10.13;;
73321;SDS011;61549;37.044;22.128;2022-12-29T15:16:51;11.27;;;9.25;;
73321;SDS011;61549;37.044;22.128;2022-12-29T15:19:26;10.90;;;9.30;;
73321;SDS011;61549;37.044;22.128;2022-12-29T15:21:53;9.95;;;8.40;;
73321;SDS011;61549;37.044;22.128;2022-12-29T15:24:20;10.88;;;9.27;;
73321;SDS011;61549;37.044;22.128;2022-12-29T15:26:49;12.18;;;9.88;;
73321;SDS011;61549;37.044;22.128;2022-12-29T15:31:55;13.20;;;11.57;;
73321;SDS011;61549;37.044;22.128;2022-12-29T15:34:24;14.90;;;11.43;;
73321;SDS011;61549;37.044;22.128;2022-12-29T15:36:50;15.60;;;11.20;;
73321;SDS011;61549;37.044;22.128;2022-12-29T15:39:19;17.65;;;12.50;;
73321;SDS011;61549;37.044;22.128;2022-12-29T15:41:50;14.35;;;11.63;;
73321;SDS011;61549;37.044;22.128;2022-12-29T15:44:42;13.63;;;11.52;;
73321;SDS011;61549;37.044;22.128;2022-12-29T15:49:47;15.23;;;11.73;;
73321;SDS011;61549;37.044;22.128;2022-12-29T15:52:21;15.15;;;11.40;;
73321;SDS011;61549;37.044;22.128;2022-12-29T15:54:49;13.98;;;10.68;;
73321;SDS011;61549;37.044;22.128;2022-12-29T15:59:50;13.48;;;11.40;;
73321;SDS011;61549;37.044;22.128;2022-12-29T16:02:16;17.20;;;11.70;;
73321;SDS011;61549;37.044;22.128;2022-12-29T16:04:43;13.70;;;11.25;;
73321;SDS011;61549;37.044;22.128;2022-12-29T16:07:22;14.80;;;12.02;;
73321;SDS011;61549;37.044;22.128;2022-12-29T16:09:58;14.05;;;11.10;;
73321;SDS011;61549;37.044;22.128;2022-12-29T16:12:33;14.57;;;12.20;;
73321;SDS011;61549;37.044;22.128;2022-12-29T16:15:02;18.98;;;13.80;;
73321;SDS011;61549;37.044;22.128;2022-12-29T16:17:31;16.35;;;13.35;;
73321;SDS011;61549;37.044;22.128;2022-12-29T16:20:19;16.50;;;12.85;;
73321;SDS011;61549;37.044;22.128;2022-12-29T16:22:49;14.07;;;12.00;;
73321;SDS011;61549;37.044;22.128;2022-12-29T16:25:33;16.95;;;13.90;;
73321;SDS011;61549;37.044;22.128;2022-12-29T16:28:02;16.80;;;13.68;;
73321;SDS011;61549;37.044;22.128;2022-12-29T16:30:45;16.20;;;12.98;;
73321;SDS011;61549;37.044;22.128;2022-12-29T16:36:21;17.75;;;14.18;;
73321;SDS011;61549;37.044;22.128;2022-12-29T16:39:32;19.73;;;15.48;;
73321;SDS011;61549;37.044;22.128;2022-12-29T16:41:51;16.25;;;13.32;;
73321;SDS011;61549;37.044;22.128;2022-12-29T16:44:19;17.13;;;13.60;;
73321;SDS011;61549;37.044;22.128;2022-12-29T16:49:31;14.65;;;11.55;;
73321;SDS011;61549;37.044;22.128;2022-12-29T16:52:10;14.07;;;12.30;;
73321;SDS011;61549;37.044;22.128;2022-12-29T16:54:58;12.50;;;10.35;;
73321;SDS011;61549;37.044;22.128;2022-12-29T16:57:29;14.70;;;11.15;;
73321;SDS011;61549;37.044;22.128;2022-12-29T17:00:04;13.30;;;10.65;;
73321;SDS011;61549;37.044;22.128;2022-12-29T17:02:31;15.18;;;11.27;;
73321;SDS011;61549;37.044;22.128;2022-12-29T17:04:59;12.48;;;10.13;;
73321;SDS011;61549;37.044;22.128;2022-12-29T17:07:26;13.43;;;11.32;;
73321;SDS011;61549;37.044;22.128;2022-12-29T17:09:53;14.02;;;10.68;;
73321;SDS011;61549;37.044;22.128;2022-12-29T17:12:20;17.13;;;12.48;;
73321;SDS011;61549;37.044;22.128;2022-12-29T17:17:29;24.70;;;17.25;;
73321;SDS011;61549;37.044;22.128;2022-12-29T17:20:00;28.60;;;21.23;;
73321;SDS011;61549;37.044;22.128;2022-12-29T17:22:40;29.38;;;24.00;;